createdAt,value
2022-11-12T00:01:43.573Z,7.73
2022-11-12T00:04:28.933Z,12.23
2022-11-12T00:07:14.108Z,9.53
2022-11-12T00:09:59.528Z,10.83
2022-11-12T00:12:45.262Z,8.63
2022-11-12T00:15:30.617Z,9.57
2022-11-12T00:18:16.210Z,8.93
2022-11-12T00:21:01.534Z,8.93
2022-11-12T00:23:46.633Z,11.83
2022-11-12T00:26:31.969Z,8.70
2022-11-12T00:29:17.255Z,9.10
2022-11-12T00:32:02.930Z,13.43
2022-11-12T00:34:47.923Z,11.43
2022-11-12T00:37:33.478Z,12.80
2022-11-12T00:40:18.805Z,9.03
2022-11-12T00:43:04.216Z,12.27
2022-11-12T00:45:49.464Z,8.50
2022-11-12T00:48:34.909Z,11.73
2022-11-12T00:51:20.348Z,10.80
2022-11-12T00:54:06.155Z,10.43
2022-11-12T00:56:51.566Z,10.00
2022-11-12T00:59:36.750Z,7.07
2022-11-12T01:02:22.308Z,9.23
2022-11-12T01:05:07.934Z,11.53
2022-11-12T01:07:56.049Z,7.43
2022-11-12T01:10:42.073Z,7.50
2022-11-12T01:13:27.446Z,14.43
2022-11-12T01:16:19.943Z,14.20
2022-11-12T01:19:08.149Z,10.83
2022-11-12T01:21:54.099Z,15.37
2022-11-12T01:24:40.649Z,10.93
2022-11-12T01:27:26.055Z,9.07
2022-11-12T01:30:12.008Z,10.00
2022-11-12T01:32:57.189Z,8.97
2022-11-12T01:35:42.632Z,13.63
2022-11-12T01:38:28.465Z,14.30
2022-11-12T01:41:17.255Z,10.27
2022-11-12T01:44:29.760Z,8.13
2022-11-12T01:47:23.533Z,5.67
2022-11-12T01:50:33.955Z,8.20
2022-11-12T01:53:21.269Z,11.33
2022-11-12T01:56:07.803Z,7.87
2022-11-12T01:59:00.762Z,11.10
2022-11-12T02:01:46.114Z,8.87
2022-11-12T02:04:33.623Z,8.73
2022-11-12T02:07:21.673Z,9.23
2022-11-12T02:10:09.465Z,8.33
2022-11-12T02:13:14.601Z,9.20
2022-11-12T02:16:00.119Z,6.47
2022-11-12T02:18:45.264Z,7.67
2022-11-12T02:21:31.246Z,11.83
2022-11-12T02:24:16.724Z,8.47
2022-11-12T02:27:02.359Z,11.57
2022-11-12T02:29:47.765Z,7.17
2022-11-12T02:32:33.080Z,8.43
2022-11-12T02:35:18.408Z,9.37
2022-11-12T02:38:04.187Z,6.13
2022-11-12T02:40:49.537Z,7.20
2022-11-12T02:43:35.002Z,7.33
2022-11-12T02:46:20.462Z,7.97
2022-11-12T02:49:05.601Z,8.80
2022-11-12T02:51:50.962Z,7.10
2022-11-12T02:54:36.293Z,8.37
2022-11-12T02:57:21.801Z,7.67
2022-11-12T03:00:11.504Z,6.73
2022-11-12T03:02:59.508Z,7.57
2022-11-12T03:05:46.569Z,7.93
2022-11-12T03:08:31.843Z,6.43
2022-11-12T03:11:18.028Z,9.33
2022-11-12T03:14:03.571Z,6.93
2022-11-12T03:16:49.017Z,8.87
2022-11-12T03:19:34.495Z,6.17
2022-11-12T03:22:19.803Z,4.90
2022-11-12T03:25:07.002Z,7.60
2022-11-12T03:27:59.219Z,5.70
2022-11-12T03:30:45.430Z,7.27
2022-11-12T03:33:30.655Z,11.47
2022-11-12T03:36:16.270Z,7.23
2022-11-12T03:39:02.217Z,6.80
2022-11-12T03:41:47.783Z,17.00
2022-11-12T03:44:33.513Z,7.40
2022-11-12T03:47:18.421Z,4.73
2022-11-12T03:50:03.949Z,9.80
2022-11-12T03:52:52.033Z,5.90
2022-11-12T03:55:37.484Z,8.00
2022-11-12T03:58:22.804Z,6.87
2022-11-12T04:01:07.993Z,6.43
2022-11-12T04:03:53.327Z,6.57
2022-11-12T04:06:57.270Z,6.77
2022-11-12T04:09:42.417Z,5.83
2022-11-12T04:12:46.271Z,5.50
2022-11-12T04:15:31.763Z,5.37
2022-11-12T04:18:35.405Z,11.87
2022-11-12T04:21:50.513Z,9.77
2022-11-12T04:24:59.252Z,7.17
2022-11-12T04:27:44.660Z,6.57
2022-11-12T04:30:29.827Z,5.43
2022-11-12T04:33:15.265Z,5.07
2022-11-12T04:36:00.505Z,6.37
2022-11-12T04:38:46.045Z,7.93
2022-11-12T04:41:51.603Z,6.00
2022-11-12T04:44:55.476Z,10.43
2022-11-12T04:47:45.374Z,8.63
2022-11-12T04:50:30.419Z,6.00
2022-11-12T04:53:15.912Z,5.43
2022-11-12T04:56:01.182Z,6.13
2022-11-12T04:58:46.765Z,5.53
2022-11-12T05:01:31.981Z,5.40
2022-11-12T05:04:17.934Z,6.67
2022-11-12T05:07:03.436Z,7.43
2022-11-12T05:09:48.828Z,6.23
2022-11-12T05:12:34.119Z,8.07
2022-11-12T05:15:19.614Z,5.73
2022-11-12T05:18:04.615Z,6.60
2022-11-12T05:20:52.770Z,5.63
2022-11-12T05:23:37.797Z,5.53
2022-11-12T05:26:23.034Z,5.87
2022-11-12T05:29:09.045Z,6.27
2022-11-12T05:31:55.466Z,7.17
2022-11-12T05:34:41.187Z,5.67
2022-11-12T05:37:26.708Z,8.70
2022-11-12T05:40:13.220Z,5.23
2022-11-12T05:42:58.440Z,6.13
2022-11-12T05:45:44.534Z,5.73
2022-11-12T05:48:30.227Z,6.47
2022-11-12T05:51:15.689Z,5.47
2022-11-12T05:54:01.846Z,6.80
2022-11-12T05:56:47.439Z,5.63
2022-11-12T05:59:32.884Z,8.37
2022-11-12T06:02:18.368Z,5.30
2022-11-12T06:05:03.965Z,5.97
2022-11-12T06:07:49.390Z,5.03
2022-11-12T06:10:35.376Z,6.63
2022-11-12T06:13:23.012Z,5.43
2022-11-12T06:16:08.942Z,5.00
2022-11-12T06:18:54.014Z,3.90
2022-11-12T06:21:39.375Z,5.47
2022-11-12T06:24:26.109Z,4.93
2022-11-12T06:27:13.629Z,6.80
2022-11-12T06:29:59.815Z,5.30
2022-11-12T06:32:51.412Z,4.20
2022-11-12T06:35:41.700Z,3.90
2022-11-12T06:38:30.472Z,4.77
2022-11-12T06:41:16.081Z,5.73
2022-11-12T06:44:01.111Z,4.13
2022-11-12T06:46:46.604Z,3.97
2022-11-12T06:49:32.279Z,6.27
2022-11-12T06:52:17.646Z,4.10
2022-11-12T06:55:03.321Z,3.80
2022-11-12T06:57:52.718Z,4.83
2022-11-12T07:00:37.910Z,4.00
2022-11-12T07:03:23.110Z,4.10
2022-11-12T07:06:12.093Z,3.93
2022-11-12T07:08:57.912Z,3.57
2022-11-12T07:11:44.103Z,3.43
2022-11-12T07:14:30.193Z,5.50
2022-11-12T07:17:15.489Z,3.33
2022-11-12T07:20:03.909Z,4.87
2022-11-12T07:22:49.790Z,3.70
2022-11-12T07:25:34.933Z,4.10
2022-11-12T07:28:20.225Z,4.30
2022-11-12T07:31:29.274Z,7.13
2022-11-12T07:34:15.276Z,4.97
2022-11-12T07:37:00.658Z,3.40
2022-11-12T07:39:46.104Z,2.73
2022-11-12T07:42:35.339Z,4.93
2022-11-12T07:45:20.232Z,3.90
2022-11-12T07:48:06.089Z,3.47
2022-11-12T07:50:51.560Z,2.77
2022-11-12T07:53:37.738Z,2.47
2022-11-12T07:56:25.740Z,4.00
2022-11-12T07:59:11.577Z,3.10
2022-11-12T08:01:56.881Z,3.53
2022-11-12T08:04:42.668Z,4.23
2022-11-12T08:07:28.567Z,6.50
2022-11-12T08:10:14.618Z,6.97
2022-11-12T08:13:00.798Z,4.17
2022-11-12T08:15:51.063Z,7.70
2022-11-12T08:18:37.829Z,6.40
2022-11-12T08:21:23.517Z,4.13
2022-11-12T08:24:09.037Z,4.90
2022-11-12T08:26:54.200Z,5.07
2022-11-12T08:29:39.796Z,9.10
2022-11-12T08:32:25.284Z,3.90
2022-11-12T08:35:10.769Z,4.83
2022-11-12T08:38:02.322Z,4.37
2022-11-12T08:40:48.000Z,6.07
2022-11-12T08:43:33.989Z,5.63
2022-11-12T08:46:19.419Z,6.10
2022-11-12T08:49:04.622Z,6.80
2022-11-12T08:51:50.357Z,6.80
2022-11-12T08:54:35.757Z,6.97
2022-11-12T08:57:21.053Z,6.93
2022-11-12T09:00:07.117Z,9.10
2022-11-12T09:02:52.382Z,5.40
2022-11-12T09:05:37.767Z,4.53
2022-11-12T09:08:25.553Z,3.67
2022-11-12T09:11:11.685Z,7.63
2022-11-12T09:13:56.942Z,3.90
2022-11-12T09:16:42.172Z,4.97
2022-11-12T09:19:27.627Z,5.10
2022-11-12T09:22:13.026Z,5.50
2022-11-12T09:24:59.021Z,4.20
2022-11-12T09:27:48.478Z,4.03
2022-11-12T09:30:35.553Z,3.50
2022-11-12T09:33:29.131Z,4.07
2022-11-12T09:36:17.649Z,6.00
2022-11-12T09:39:03.172Z,4.30
2022-11-12T09:41:48.122Z,10.20
2022-11-12T09:44:37.700Z,4.03
2022-11-12T09:47:57.746Z,4.23
2022-11-12T09:50:54.130Z,4.40
2022-11-12T09:54:00.933Z,4.07
2022-11-12T09:56:49.221Z,4.40
2022-11-12T09:59:39.943Z,4.80
2022-11-12T10:02:37.642Z,5.35
2022-11-12T10:05:25.946Z,8.73
2022-11-12T10:08:30.007Z,3.78
2022-11-12T10:11:32.210Z,3.77
2022-11-12T10:14:52.876Z,3.35
2022-11-12T10:17:44.601Z,4.03
2022-11-12T10:20:42.701Z,3.10
2022-11-12T10:23:36.830Z,4.53
2022-11-12T10:26:25.788Z,3.65
2022-11-12T10:29:11.450Z,1.25
2022-11-12T10:31:56.679Z,3.72
2022-11-12T10:34:42.394Z,1.15
2022-11-12T10:37:42.642Z,2.00
2022-11-12T10:40:31.192Z,2.90
2022-11-12T10:43:17.222Z,3.30
2022-11-12T10:46:36.440Z,2.15
2022-11-12T10:49:24.748Z,1.60
2022-11-12T10:52:24.792Z,2.40
2022-11-12T10:55:18.111Z,1.23
2022-11-12T10:58:19.729Z,1.35
2022-11-12T11:01:15.196Z,1.75
2022-11-12T11:04:01.550Z,1.55
2022-11-12T11:06:47.776Z,1.70
2022-11-12T11:09:34.663Z,1.10
2022-11-12T11:12:28.458Z,1.25
2022-11-12T11:15:22.943Z,2.55
2022-11-12T11:18:12.795Z,2.03
2022-11-12T11:21:19.767Z,2.13
2022-11-12T11:24:16.735Z,1.10
2022-11-12T11:27:20.748Z,1.45
2022-11-12T11:30:13.081Z,1.20
2022-11-12T11:33:19.878Z,1.88
2022-11-12T11:36:44.386Z,5.88
2022-11-12T11:39:41.089Z,3.13
2022-11-12T11:42:47.915Z,2.83
2022-11-12T11:45:33.401Z,2.35
2022-11-12T11:48:27.018Z,2.42
2022-11-12T11:51:32.001Z,3.20
2022-11-12T11:54:23.526Z,5.88
2022-11-12T11:57:15.636Z,5.07
2022-11-12T12:00:23.021Z,3.90
2022-11-12T12:03:21.993Z,3.70
2022-11-12T12:06:19.764Z,1.83
2022-11-12T12:09:05.046Z,1.48
2022-11-12T12:11:50.390Z,2.08
2022-11-12T12:14:47.932Z,2.90
2022-11-12T12:18:03.971Z,1.80
2022-11-12T12:21:09.592Z,1.40
2022-11-12T12:24:06.122Z,1.50
2022-11-12T12:26:56.610Z,1.80
2022-11-12T12:29:50.093Z,2.40
2022-11-12T12:32:57.077Z,2.25
2022-11-12T12:36:02.367Z,2.55
2022-11-12T12:38:56.583Z,2.85
2022-11-12T12:42:03.807Z,3.35
2022-11-12T12:45:01.018Z,3.90
2022-11-12T12:47:48.848Z,2.63
2022-11-12T12:50:38.346Z,8.73
2022-11-12T12:53:32.877Z,5.55
2022-11-12T12:56:24.272Z,3.03
2022-11-12T12:59:20.378Z,3.33
2022-11-12T13:02:21.405Z,4.47
2022-11-12T13:05:21.797Z,5.28
2022-11-12T13:08:19.019Z,4.07
2022-11-12T13:11:05.602Z,8.68
2022-11-12T13:13:51.581Z,3.38
2022-11-12T13:17:01.482Z,2.53
2022-11-12T13:19:59.059Z,3.45
2022-11-12T13:22:44.296Z,3.85
2022-11-12T13:25:32.756Z,2.93
2022-11-12T13:28:19.199Z,3.73
2022-11-12T13:31:23.881Z,5.38
2022-11-12T13:34:33.265Z,3.97
2022-11-12T13:37:21.617Z,3.45
2022-11-12T13:40:14.707Z,3.50
2022-11-12T13:43:13.337Z,6.17
2022-11-12T13:46:10.695Z,3.90
2022-11-12T13:48:58.715Z,5.33
2022-11-12T13:51:47.099Z,5.07
2022-11-12T13:54:38.099Z,6.27
2022-11-12T13:57:26.174Z,3.57
2022-11-12T14:00:21.946Z,11.50
2022-11-12T14:03:08.324Z,5.13
2022-11-12T14:05:54.604Z,5.93
2022-11-12T14:08:46.035Z,5.07
2022-11-12T14:11:58.540Z,4.77
2022-11-12T14:15:02.173Z,4.93
2022-11-12T14:18:11.248Z,4.00
2022-11-12T14:20:56.669Z,5.97
2022-11-12T14:23:47.211Z,4.60
2022-11-12T14:26:38.874Z,5.67
2022-11-12T14:29:24.158Z,5.83
2022-11-12T14:32:09.785Z,7.73
2022-11-12T14:34:54.730Z,7.70
2022-11-12T14:37:43.852Z,9.07
2022-11-12T14:40:33.856Z,14.93
2022-11-12T14:43:27.597Z,16.13
2022-11-12T14:46:45.927Z,13.50
2022-11-12T14:49:43.939Z,8.57
2022-11-12T14:52:40.742Z,33.50
2022-11-12T14:55:36.347Z,10.03
2022-11-12T14:58:23.683Z,11.83
2022-11-12T15:04:45.485Z,9.50
2022-11-12T15:07:50.529Z,8.47
2022-11-12T15:10:44.504Z,11.90
2022-11-12T15:13:38.720Z,8.17
2022-11-12T15:16:28.427Z,35.23
2022-11-12T15:19:23.933Z,21.90
2022-11-12T15:22:21.095Z,11.90
2022-11-12T15:25:30.932Z,8.97
2022-11-12T15:28:24.878Z,8.67
2022-11-12T15:31:21.898Z,7.47
2022-11-12T15:34:26.096Z,9.40
2022-11-12T15:37:18.002Z,6.27
2022-11-12T15:40:12.793Z,8.73
2022-11-12T15:42:59.130Z,10.70
2022-11-12T15:45:49.587Z,10.20
2022-11-12T15:48:35.650Z,15.27
2022-11-12T15:51:21.148Z,8.10
2022-11-12T15:54:06.302Z,11.87
2022-11-12T15:56:52.073Z,10.10
2022-11-12T15:59:37.229Z,6.80
2022-11-12T16:02:23.004Z,8.40
2022-11-12T16:05:19.825Z,12.43
2022-11-12T16:08:06.208Z,13.00
2022-11-12T16:10:51.554Z,10.70
2022-11-12T16:13:36.976Z,8.77
2022-11-12T16:16:22.412Z,12.17
2022-11-12T16:19:18.341Z,10.87
2022-11-12T16:22:12.276Z,8.87
2022-11-12T16:24:57.887Z,8.90
2022-11-12T16:27:43.609Z,13.10
2022-11-12T16:30:33.557Z,8.80
2022-11-12T16:33:20.230Z,10.27
2022-11-12T16:36:15.248Z,19.90
2022-11-12T16:39:00.641Z,11.67
2022-11-12T16:41:45.932Z,23.80
2022-11-12T16:44:31.193Z,10.53
2022-11-12T16:47:16.553Z,13.33
2022-11-12T16:50:01.929Z,15.77
2022-11-12T16:52:48.777Z,12.10
2022-11-12T16:55:35.030Z,10.17
2022-11-12T16:58:20.516Z,10.20
2022-11-12T17:01:06.729Z,7.57
2022-11-12T17:03:53.703Z,7.20
2022-11-12T17:06:41.083Z,6.00
2022-11-12T17:09:26.403Z,7.63
2022-11-12T17:12:11.969Z,9.23
2022-11-12T17:14:57.076Z,11.90
2022-11-12T17:17:42.546Z,17.60
2022-11-12T17:20:27.723Z,11.57
2022-11-12T17:23:13.201Z,10.30
2022-11-12T17:26:04.050Z,14.77
2022-11-12T17:28:55.552Z,8.57
2022-11-12T17:31:49.203Z,11.93
2022-11-12T17:34:35.923Z,10.90
2022-11-12T17:37:20.923Z,9.83
2022-11-12T17:40:07.134Z,10.30
2022-11-12T17:42:53.861Z,14.07
2022-11-12T17:45:39.065Z,9.50
2022-11-12T17:48:24.960Z,10.70
2022-11-12T17:51:12.927Z,9.93
2022-11-12T17:53:58.106Z,9.90
2022-11-12T17:56:43.606Z,15.33
2022-11-12T17:59:29.009Z,11.90
2022-11-12T18:02:14.537Z,13.93
2022-11-12T18:04:59.701Z,22.17
2022-11-12T18:07:45.071Z,27.13
2022-11-12T18:10:30.253Z,31.00
2022-11-12T18:13:15.731Z,21.00
2022-11-12T18:16:01.383Z,25.77
2022-11-12T18:18:47.546Z,22.33
2022-11-12T18:21:32.755Z,14.20
2022-11-12T18:24:18.144Z,23.00
2022-11-12T18:27:03.783Z,12.43
2022-11-12T18:29:49.958Z,36.73
2022-11-12T18:32:36.369Z,14.57
2022-11-12T18:35:29.510Z,14.67
2022-11-12T18:38:15.340Z,25.97
2022-11-12T18:41:08.438Z,14.27
2022-11-12T18:43:55.198Z,14.80
2022-11-12T18:46:40.656Z,15.47
2022-11-12T18:49:26.114Z,14.27
2022-11-12T18:52:11.439Z,17.20
2022-11-12T18:54:56.766Z,14.73
2022-11-12T18:57:42.034Z,11.67
2022-11-12T19:00:27.466Z,12.30
2022-11-12T19:03:13.369Z,16.17
2022-11-12T19:06:00.045Z,19.13
2022-11-12T19:08:45.208Z,19.53
2022-11-12T19:11:30.426Z,24.20
2022-11-12T19:14:15.824Z,16.30
2022-11-12T19:17:01.332Z,13.27
2022-11-12T19:19:46.575Z,15.03
2022-11-12T19:22:31.907Z,15.50
2022-11-12T19:25:17.329Z,16.63
2022-11-12T19:28:02.756Z,20.43
2022-11-12T19:30:48.160Z,24.13
2022-11-12T19:33:34.488Z,46.87
2022-11-12T19:36:22.179Z,28.10
2022-11-12T19:39:08.055Z,19.23
2022-11-12T19:41:53.612Z,24.53
2022-11-12T19:44:38.906Z,27.67
2022-11-12T19:47:24.680Z,25.50
2022-11-12T19:50:10.202Z,35.30
2022-11-12T19:52:55.878Z,12.83
2022-11-12T19:55:41.327Z,18.13
2022-11-12T19:58:27.755Z,11.70
2022-11-12T20:01:16.371Z,14.17
2022-11-12T20:04:01.680Z,20.73
2022-11-12T20:06:47.115Z,13.70
2022-11-12T20:09:32.388Z,12.20
2022-11-12T20:12:17.661Z,15.30
2022-11-12T20:15:03.074Z,13.80
2022-11-12T20:17:48.400Z,14.03
2022-11-12T20:20:33.838Z,10.87
2022-11-12T20:23:19.374Z,12.73
2022-11-12T20:26:11.102Z,10.27
2022-11-12T20:28:56.668Z,10.47
2022-11-12T20:31:42.129Z,12.97
2022-11-12T20:34:27.556Z,14.40
2022-11-12T20:37:12.949Z,11.50
2022-11-12T20:39:58.295Z,10.67
2022-11-12T20:42:43.927Z,19.63
2022-11-12T20:45:29.508Z,13.53
2022-11-12T20:48:14.889Z,11.23
2022-11-12T20:51:26.618Z,10.93
2022-11-12T20:54:12.060Z,9.53
2022-11-12T20:56:57.301Z,11.40
2022-11-12T20:59:43.283Z,10.50
2022-11-12T21:02:28.597Z,9.00
2022-11-12T21:05:14.118Z,9.17
2022-11-12T21:07:59.631Z,11.80
2022-11-12T21:10:49.137Z,21.13
2022-11-12T21:13:36.599Z,36.93
2022-11-12T21:16:22.940Z,29.47
2022-11-12T21:19:08.423Z,23.07
2022-11-12T21:21:54.549Z,32.73
2022-11-12T21:24:40.730Z,31.93
2022-11-12T21:27:25.961Z,14.63
2022-11-12T21:30:11.977Z,11.67
2022-11-12T21:32:57.661Z,15.57
2022-11-12T21:35:43.317Z,15.97
2022-11-12T21:38:29.753Z,22.50
2022-11-12T21:41:18.786Z,18.13
2022-11-12T21:44:04.004Z,21.80
2022-11-12T21:46:49.447Z,23.73
2022-11-12T21:49:34.912Z,14.00
2022-11-12T21:52:20.202Z,17.50
2022-11-12T21:55:07.150Z,15.17
2022-11-12T21:57:53.460Z,14.33
2022-11-12T22:00:42.006Z,11.83
2022-11-12T22:03:31.075Z,23.73
2022-11-12T22:06:17.286Z,24.57
2022-11-12T22:09:02.947Z,15.80
2022-11-12T22:11:48.299Z,27.27
2022-11-12T22:14:33.541Z,13.93
2022-11-12T22:17:18.905Z,10.27
2022-11-12T22:20:04.540Z,12.17
2022-11-12T22:22:52.654Z,47.27
2022-11-12T22:25:38.966Z,20.53
2022-11-12T22:28:25.231Z,25.87
2022-11-12T22:31:13.381Z,37.00
2022-11-12T22:34:00.453Z,18.73
2022-11-12T22:36:46.144Z,38.43
2022-11-12T22:39:31.237Z,19.20
2022-11-12T22:42:16.917Z,46.83
2022-11-12T22:45:01.928Z,38.77
2022-11-12T22:47:47.500Z,21.90
2022-11-12T22:50:32.763Z,39.27
2022-11-12T22:53:17.941Z,21.90
2022-11-12T22:56:05.571Z,38.33
2022-11-12T22:58:51.768Z,46.17
2022-11-12T23:01:36.920Z,35.60
2022-11-12T23:04:24.466Z,31.97
2022-11-12T23:07:09.935Z,35.10
2022-11-12T23:09:55.544Z,32.00
2022-11-12T23:12:41.347Z,40.10
2022-11-12T23:15:31.205Z,25.43
2022-11-12T23:18:16.513Z,17.67
2022-11-12T23:21:11.425Z,24.47
2022-11-12T23:23:58.268Z,47.00
2022-11-12T23:26:43.491Z,24.27
2022-11-12T23:29:28.685Z,43.07
2022-11-12T23:32:13.996Z,35.80
2022-11-12T23:34:59.306Z,21.03
2022-11-12T23:37:44.745Z,44.13
2022-11-12T23:40:31.304Z,32.30
2022-11-12T23:43:16.875Z,27.10
2022-11-12T23:46:02.374Z,17.73
2022-11-12T23:48:48.356Z,39.00
2022-11-12T23:51:33.737Z,22.40
2022-11-12T23:54:18.863Z,20.13
2022-11-12T23:57:04.258Z,27.57
2022-11-12T23:59:49.632Z,20.97
